sensor_id;sensor_type;location;lat;lon;timestamp;P1;durP1;ratioP1;P2;durP2;ratioP2
72275;SDS011;61204;49.980;8.358;2023-10-13T00:00:32;15.23;;;7.38;;
72275;SDS011;61204;49.980;8.358;2023-10-13T00:03:03;14.15;;;6.82;;
72275;SDS011;61204;49.980;8.358;2023-10-13T00:05:31;8.55;;;5.97;;
72275;SDS011;61204;49.980;8.358;2023-10-13T00:08:01;12.55;;;6.72;;
72275;SDS011;61204;49.980;8.358;2023-10-13T00:10:30;9.32;;;6.05;;
72275;SDS011;61204;49.980;8.358;2023-10-13T00:12:58;9.25;;;6.43;;
72275;SDS011;61204;49.980;8.358;2023-10-13T00:15:51;9.02;;;5.85;;
72275;SDS011;61204;49.980;8.358;2023-10-13T00:18:26;10.30;;;6.25;;
72275;SDS011;61204;49.980;8.358;2023-10-13T00:21:02;10.60;;;6.10;;
72275;SDS011;61204;49.980;8.358;2023-10-13T00:23:37;13.13;;;6.88;;
72275;SDS011;61204;49.980;8.358;2023-10-13T00:26:19;11.82;;;6.30;;
72275;SDS011;61204;49.980;8.358;2023-10-13T00:28:55;12.07;;;6.82;;
72275;SDS011;61204;49.980;8.358;2023-10-13T00:31:32;8.73;;;5.93;;
72275;SDS011;61204;49.980;8.358;2023-10-13T00:34:05;11.15;;;6.55;;
72275;SDS011;61204;49.980;8.358;2023-10-13T00:36:50;13.68;;;6.38;;
72275;SDS011;61204;49.980;8.358;2023-10-13T00:39:34;11.10;;;6.05;;
72275;SDS011;61204;49.980;8.358;2023-10-13T00:42:13;10.38;;;6.03;;
72275;SDS011;61204;49.980;8.358;2023-10-13T00:44:50;14.82;;;6.20;;
72275;SDS011;61204;49.980;8.358;2023-10-13T00:47:19;10.23;;;6.50;;
72275;SDS011;61204;49.980;8.358;2023-10-13T00:50:12;13.00;;;6.22;;
72275;SDS011;61204;49.980;8.358;2023-10-13T00:52:40;13.00;;;6.57;;
72275;SDS011;61204;49.980;8.358;2023-10-13T00:55:11;12.13;;;6.00;;
72275;SDS011;61204;49.980;8.358;2023-10-13T00:57:39;11.20;;;6.80;;
72275;SDS011;61204;49.980;8.358;2023-10-13T01:00:06;10.25;;;5.82;;
72275;SDS011;61204;49.980;8.358;2023-10-13T01:02:59;20.13;;;7.78;;
72275;SDS011;61204;49.980;8.358;2023-10-13T01:05:32;11.65;;;7.03;;
72275;SDS011;61204;49.980;8.358;2023-10-13T01:08:01;11.90;;;7.22;;
72275;SDS011;61204;49.980;8.358;2023-10-13T01:10:28;11.60;;;6.85;;
72275;SDS011;61204;49.980;8.358;2023-10-13T01:12:57;12.48;;;7.20;;
72275;SDS011;61204;49.980;8.358;2023-10-13T01:15:27;13.60;;;6.60;;
72275;SDS011;61204;49.980;8.358;2023-10-13T01:18:07;10.00;;;6.40;;
72275;SDS011;61204;49.980;8.358;2023-10-13T01:20:38;16.52;;;7.55;;
72275;SDS011;61204;49.980;8.358;2023-10-13T01:23:13;14.45;;;7.10;;
72275;SDS011;61204;49.980;8.358;2023-10-13T01:25:49;15.80;;;7.45;;
72275;SDS011;61204;49.980;8.358;2023-10-13T01:28:15;15.13;;;8.30;;
72275;SDS011;61204;49.980;8.358;2023-10-13T01:30:44;13.07;;;7.03;;
72275;SDS011;61204;49.980;8.358;2023-10-13T01:33:17;10.07;;;6.55;;
72275;SDS011;61204;49.980;8.358;2023-10-13T01:35:54;11.23;;;7.03;;
72275;SDS011;61204;49.980;8.358;2023-10-13T01:38:23;11.73;;;7.15;;
72275;SDS011;61204;49.980;8.358;2023-10-13T01:40:53;13.95;;;6.88;;
72275;SDS011;61204;49.980;8.358;2023-10-13T01:43:21;13.73;;;6.60;;
72275;SDS011;61204;49.980;8.358;2023-10-13T01:45:48;15.20;;;7.97;;
72275;SDS011;61204;49.980;8.358;2023-10-13T01:48:14;10.75;;;6.93;;
72275;SDS011;61204;49.980;8.358;2023-10-13T01:50:46;14.88;;;6.63;;
72275;SDS011;61204;49.980;8.358;2023-10-13T01:53:21;11.27;;;6.60;;
72275;SDS011;61204;49.980;8.358;2023-10-13T01:55:47;10.18;;;6.53;;
72275;SDS011;61204;49.980;8.358;2023-10-13T01:58:15;13.60;;;7.03;;
72275;SDS011;61204;49.980;8.358;2023-10-13T02:00:45;13.18;;;7.53;;
72275;SDS011;61204;49.980;8.358;2023-10-13T02:03:15;13.40;;;7.30;;
72275;SDS011;61204;49.980;8.358;2023-10-13T02:05:44;14.15;;;6.88;;
72275;SDS011;61204;49.980;8.358;2023-10-13T02:08:16;16.05;;;6.70;;
72275;SDS011;61204;49.980;8.358;2023-10-13T02:13:20;12.43;;;6.85;;
72275;SDS011;61204;49.980;8.358;2023-10-13T02:15:49;13.75;;;7.00;;
72275;SDS011;61204;49.980;8.358;2023-10-13T02:18:21;12.77;;;7.00;;
72275;SDS011;61204;49.980;8.358;2023-10-13T02:20:55;12.80;;;7.38;;
72275;SDS011;61204;49.980;8.358;2023-10-13T02:23:29;13.63;;;7.63;;
72275;SDS011;61204;49.980;8.358;2023-10-13T02:25:55;12.02;;;6.97;;
72275;SDS011;61204;49.980;8.358;2023-10-13T02:28:28;12.85;;;7.20;;
72275;SDS011;61204;49.980;8.358;2023-10-13T02:31:01;16.75;;;7.00;;
72275;SDS011;61204;49.980;8.358;2023-10-13T02:33:31;11.80;;;7.07;;
72275;SDS011;61204;49.980;8.358;2023-10-13T02:35:58;10.75;;;6.75;;
72275;SDS011;61204;49.980;8.358;2023-10-13T02:38:33;13.32;;;7.53;;
72275;SDS011;61204;49.980;8.358;2023-10-13T02:40:59;12.35;;;7.13;;
72275;SDS011;61204;49.980;8.358;2023-10-13T02:43:33;10.95;;;6.97;;
72275;SDS011;61204;49.980;8.358;2023-10-13T02:46:02;12.50;;;6.78;;
72275;SDS011;61204;49.980;8.358;2023-10-13T02:48:30;13.50;;;7.68;;
72275;SDS011;61204;49.980;8.358;2023-10-13T02:53:41;16.20;;;7.47;;
72275;SDS011;61204;49.980;8.358;2023-10-13T02:56:13;13.32;;;7.63;;
72275;SDS011;61204;49.980;8.358;2023-10-13T02:58:45;12.32;;;6.95;;
72275;SDS011;61204;49.980;8.358;2023-10-13T03:01:18;14.07;;;7.10;;
72275;SDS011;61204;49.980;8.358;2023-10-13T03:03:49;11.30;;;6.82;;
72275;SDS011;61204;49.980;8.358;2023-10-13T03:06:19;17.63;;;7.80;;
72275;SDS011;61204;49.980;8.358;2023-10-13T03:08:49;12.20;;;7.03;;
72275;SDS011;61204;49.980;8.358;2023-10-13T03:11:18;11.30;;;7.30;;
72275;SDS011;61204;49.980;8.358;2023-10-13T03:13:47;15.07;;;7.65;;
72275;SDS011;61204;49.980;8.358;2023-10-13T03:16:17;15.40;;;7.00;;
72275;SDS011;61204;49.980;8.358;2023-10-13T03:18:45;12.27;;;7.57;;
72275;SDS011;61204;49.980;8.358;2023-10-13T03:21:22;17.77;;;7.97;;
72275;SDS011;61204;49.980;8.358;2023-10-13T03:23:58;9.98;;;6.13;;
72275;SDS011;61204;49.980;8.358;2023-10-13T03:26:32;14.73;;;6.65;;
72275;SDS011;61204;49.980;8.358;2023-10-13T03:29:03;15.23;;;7.03;;
72275;SDS011;61204;49.980;8.358;2023-10-13T03:31:32;12.68;;;7.20;;
72275;SDS011;61204;49.980;8.358;2023-10-13T03:34:02;16.23;;;7.68;;
72275;SDS011;61204;49.980;8.358;2023-10-13T03:36:35;11.75;;;6.82;;
72275;SDS011;61204;49.980;8.358;2023-10-13T03:39:20;11.60;;;6.77;;
72275;SDS011;61204;49.980;8.358;2023-10-13T03:41:52;12.40;;;7.93;;
72275;SDS011;61204;49.980;8.358;2023-10-13T03:44:19;13.25;;;7.82;;
72275;SDS011;61204;49.980;8.358;2023-10-13T03:46:45;16.92;;;7.50;;
72275;SDS011;61204;49.980;8.358;2023-10-13T03:49:13;13.93;;;7.55;;
72275;SDS011;61204;49.980;8.358;2023-10-13T03:51:50;13.88;;;8.15;;
72275;SDS011;61204;49.980;8.358;2023-10-13T03:54:19;12.00;;;6.80;;
72275;SDS011;61204;49.980;8.358;2023-10-13T03:56:47;13.88;;;7.53;;
72275;SDS011;61204;49.980;8.358;2023-10-13T03:59:17;15.95;;;7.05;;
72275;SDS011;61204;49.980;8.358;2023-10-13T04:01:43;13.15;;;7.30;;
72275;SDS011;61204;49.980;8.358;2023-10-13T04:04:17;10.77;;;6.85;;
72275;SDS011;61204;49.980;8.358;2023-10-13T04:07:02;12.02;;;7.78;;
72275;SDS011;61204;49.980;8.358;2023-10-13T04:09:32;14.05;;;8.15;;
72275;SDS011;61204;49.980;8.358;2023-10-13T04:11:58;11.48;;;7.75;;
72275;SDS011;61204;49.980;8.358;2023-10-13T04:14:36;14.13;;;6.88;;
72275;SDS011;61204;49.980;8.358;2023-10-13T04:17:28;17.45;;;8.57;;
72275;SDS011;61204;49.980;8.358;2023-10-13T04:19:58;15.88;;;7.97;;
72275;SDS011;61204;49.980;8.358;2023-10-13T04:22:33;14.82;;;7.82;;
72275;SDS011;61204;49.980;8.358;2023-10-13T04:28:06;12.63;;;7.60;;
72275;SDS011;61204;49.980;8.358;2023-10-13T04:30:53;11.20;;;6.70;;
72275;SDS011;61204;49.980;8.358;2023-10-13T04:33:21;12.70;;;7.10;;
72275;SDS011;61204;49.980;8.358;2023-10-13T04:35:55;12.20;;;6.85;;
72275;SDS011;61204;49.980;8.358;2023-10-13T04:38:24;11.30;;;6.85;;
72275;SDS011;61204;49.980;8.358;2023-10-13T04:40:58;15.88;;;10.25;;
72275;SDS011;61204;49.980;8.358;2023-10-13T04:43:26;16.88;;;7.35;;
72275;SDS011;61204;49.980;8.358;2023-10-13T04:45:59;12.20;;;7.28;;
72275;SDS011;61204;49.980;8.358;2023-10-13T04:48:39;11.80;;;7.32;;
72275;SDS011;61204;49.980;8.358;2023-10-13T04:51:05;11.13;;;6.82;;
72275;SDS011;61204;49.980;8.358;2023-10-13T04:53:59;10.10;;;7.35;;
72275;SDS011;61204;49.980;8.358;2023-10-13T04:56:25;12.77;;;7.40;;
72275;SDS011;61204;49.980;8.358;2023-10-13T04:59:03;12.98;;;7.30;;
72275;SDS011;61204;49.980;8.358;2023-10-13T05:01:43;14.60;;;6.97;;
72275;SDS011;61204;49.980;8.358;2023-10-13T05:04:35;13.18;;;7.38;;
72275;SDS011;61204;49.980;8.358;2023-10-13T05:07:03;12.95;;;7.47;;
72275;SDS011;61204;49.980;8.358;2023-10-13T05:09:47;14.57;;;7.53;;
72275;SDS011;61204;49.980;8.358;2023-10-13T05:12:31;12.77;;;7.47;;
72275;SDS011;61204;49.980;8.358;2023-10-13T05:15:15;13.80;;;7.32;;
72275;SDS011;61204;49.980;8.358;2023-10-13T05:18:00;12.05;;;8.10;;
72275;SDS011;61204;49.980;8.358;2023-10-13T05:20:44;14.07;;;8.05;;
72275;SDS011;61204;49.980;8.358;2023-10-13T05:23:28;15.02;;;8.50;;
72275;SDS011;61204;49.980;8.358;2023-10-13T05:26:26;18.73;;;9.57;;
72275;SDS011;61204;49.980;8.358;2023-10-13T05:29:13;15.00;;;8.48;;
72275;SDS011;61204;49.980;8.358;2023-10-13T05:31:57;18.92;;;9.05;;
72275;SDS011;61204;49.980;8.358;2023-10-13T05:34:41;17.60;;;8.80;;
72275;SDS011;61204;49.980;8.358;2023-10-13T05:37:25;15.52;;;8.52;;
72275;SDS011;61204;49.980;8.358;2023-10-13T05:40:10;13.07;;;8.80;;
72275;SDS011;61204;49.980;8.358;2023-10-13T05:42:54;19.63;;;9.05;;
72275;SDS011;61204;49.980;8.358;2023-10-13T05:45:38;15.80;;;8.35;;
72275;SDS011;61204;49.980;8.358;2023-10-13T05:48:22;11.65;;;8.05;;
72275;SDS011;61204;49.980;8.358;2023-10-13T05:51:06;12.45;;;7.65;;
72275;SDS011;61204;49.980;8.358;2023-10-13T05:53:51;16.17;;;7.57;;
72275;SDS011;61204;49.980;8.358;2023-10-13T05:56:35;14.70;;;7.55;;
72275;SDS011;61204;49.980;8.358;2023-10-13T05:59:19;12.73;;;8.15;;
72275;SDS011;61204;49.980;8.358;2023-10-13T06:02:06;18.80;;;7.28;;
72275;SDS011;61204;49.980;8.358;2023-10-13T06:04:53;12.00;;;7.13;;
72275;SDS011;61204;49.980;8.358;2023-10-13T06:07:37;12.88;;;7.60;;
72275;SDS011;61204;49.980;8.358;2023-10-13T06:10:21;15.55;;;7.13;;
72275;SDS011;61204;49.980;8.358;2023-10-13T06:13:05;13.80;;;7.40;;
72275;SDS011;61204;49.980;8.358;2023-10-13T06:15:50;15.20;;;7.43;;
72275;SDS011;61204;49.980;8.358;2023-10-13T06:18:34;12.02;;;7.25;;
72275;SDS011;61204;49.980;8.358;2023-10-13T06:21:19;13.52;;;8.07;;
72275;SDS011;61204;49.980;8.358;2023-10-13T06:24:05;10.93;;;6.90;;
72275;SDS011;61204;49.980;8.358;2023-10-13T06:29:35;10.82;;;6.63;;
72275;SDS011;61204;49.980;8.358;2023-10-13T06:32:00;11.07;;;6.78;;
72275;SDS011;61204;49.980;8.358;2023-10-13T06:34:29;14.05;;;7.15;;
72275;SDS011;61204;49.980;8.358;2023-10-13T06:37:14;13.05;;;6.60;;
72275;SDS011;61204;49.980;8.358;2023-10-13T06:39:56;13.55;;;6.97;;
72275;SDS011;61204;49.980;8.358;2023-10-13T06:42:31;12.13;;;5.80;;
72275;SDS011;61204;49.980;8.358;2023-10-13T06:45:07;14.80;;;6.55;;
72275;SDS011;61204;49.980;8.358;2023-10-13T06:47:36;10.77;;;6.00;;
72275;SDS011;61204;49.980;8.358;2023-10-13T06:52:43;13.82;;;5.90;;
72275;SDS011;61204;49.980;8.358;2023-10-13T06:55:15;7.60;;;5.47;;
72275;SDS011;61204;49.980;8.358;2023-10-13T06:57:59;11.67;;;6.50;;
72275;SDS011;61204;49.980;8.358;2023-10-13T07:00:26;9.57;;;5.20;;
72275;SDS011;61204;49.980;8.358;2023-10-13T07:02:57;10.52;;;5.70;;
72275;SDS011;61204;49.980;8.358;2023-10-13T07:05:38;9.63;;;5.13;;
72275;SDS011;61204;49.980;8.358;2023-10-13T07:08:06;11.43;;;4.95;;
72275;SDS011;61204;49.980;8.358;2023-10-13T07:10:34;7.00;;;4.32;;
72275;SDS011;61204;49.980;8.358;2023-10-13T07:13:13;10.48;;;5.32;;
72275;SDS011;61204;49.980;8.358;2023-10-13T07:15:42;9.95;;;4.95;;
72275;SDS011;61204;49.980;8.358;2023-10-13T07:18:12;12.07;;;5.93;;
72275;SDS011;61204;49.980;8.358;2023-10-13T07:20:47;10.05;;;5.15;;
72275;SDS011;61204;49.980;8.358;2023-10-13T07:23:14;9.15;;;5.10;;
72275;SDS011;61204;49.980;8.358;2023-10-13T07:25:50;10.90;;;4.85;;
72275;SDS011;61204;49.980;8.358;2023-10-13T07:28:19;7.95;;;4.53;;
72275;SDS011;61204;49.980;8.358;2023-10-13T07:30:46;10.93;;;4.97;;
72275;SDS011;61204;49.980;8.358;2023-10-13T07:33:18;9.77;;;5.32;;
72275;SDS011;61204;49.980;8.358;2023-10-13T07:35:48;9.45;;;5.10;;
72275;SDS011;61204;49.980;8.358;2023-10-13T07:38:41;8.02;;;4.53;;
72275;SDS011;61204;49.980;8.358;2023-10-13T07:41:13;9.90;;;4.82;;
72275;SDS011;61204;49.980;8.358;2023-10-13T07:43:42;10.70;;;4.10;;
72275;SDS011;61204;49.980;8.358;2023-10-13T07:46:10;7.50;;;4.28;;
72275;SDS011;61204;49.980;8.358;2023-10-13T07:48:37;9.85;;;4.78;;
72275;SDS011;61204;49.980;8.358;2023-10-13T07:51:06;13.45;;;5.00;;
72275;SDS011;61204;49.980;8.358;2023-10-13T07:53:45;8.73;;;4.65;;
72275;SDS011;61204;49.980;8.358;2023-10-13T07:56:14;7.43;;;3.95;;
72275;SDS011;61204;49.980;8.358;2023-10-13T07:58:43;8.00;;;4.78;;
72275;SDS011;61204;49.980;8.358;2023-10-13T08:01:17;6.90;;;4.53;;
72275;SDS011;61204;49.980;8.358;2023-10-13T08:03:44;9.45;;;4.40;;
72275;SDS011;61204;49.980;8.358;2023-10-13T08:06:15;8.80;;;4.97;;
72275;SDS011;61204;49.980;8.358;2023-10-13T08:08:44;9.60;;;4.90;;
72275;SDS011;61204;49.980;8.358;2023-10-13T08:11:15;8.30;;;4.40;;
72275;SDS011;61204;49.980;8.358;2023-10-13T08:13:51;8.23;;;4.63;;
72275;SDS011;61204;49.980;8.358;2023-10-13T08:16:22;10.43;;;4.97;;
72275;SDS011;61204;49.980;8.358;2023-10-13T08:19:09;8.27;;;4.47;;
72275;SDS011;61204;49.980;8.358;2023-10-13T08:21:35;8.13;;;4.63;;
72275;SDS011;61204;49.980;8.358;2023-10-13T08:24:02;11.55;;;4.63;;
72275;SDS011;61204;49.980;8.358;2023-10-13T08:26:34;13.90;;;4.53;;
72275;SDS011;61204;49.980;8.358;2023-10-13T08:29:18;9.75;;;4.75;;
72275;SDS011;61204;49.980;8.358;2023-10-13T08:31:47;9.13;;;4.05;;
72275;SDS011;61204;49.980;8.358;2023-10-13T08:34:35;10.98;;;4.13;;
72275;SDS011;61204;49.980;8.358;2023-10-13T08:37:25;10.02;;;4.85;;
72275;SDS011;61204;49.980;8.358;2023-10-13T08:39:58;8.27;;;4.80;;
72275;SDS011;61204;49.980;8.358;2023-10-13T08:45:11;7.32;;;4.50;;
72275;SDS011;61204;49.980;8.358;2023-10-13T08:47:53;7.82;;;4.55;;
72275;SDS011;61204;49.980;8.358;2023-10-13T08:50:47;7.32;;;4.20;;
72275;SDS011;61204;49.980;8.358;2023-10-13T08:56:08;9.73;;;5.53;;
72275;SDS011;61204;49.980;8.358;2023-10-13T08:58:39;6.18;;;3.90;;
72275;SDS011;61204;49.980;8.358;2023-10-13T09:04:12;11.88;;;5.75;;
72275;SDS011;61204;49.980;8.358;2023-10-13T09:09:33;9.32;;;5.07;;
72275;SDS011;61204;49.980;8.358;2023-10-13T09:14:57;9.75;;;5.22;;
72275;SDS011;61204;49.980;8.358;2023-10-13T09:17:32;10.50;;;5.32;;
72275;SDS011;61204;49.980;8.358;2023-10-13T09:20:08;5.78;;;4.63;;
72275;SDS011;61204;49.980;8.358;2023-10-13T09:22:50;10.63;;;5.22;;
72275;SDS011;61204;49.980;8.358;2023-10-13T09:25:27;14.63;;;5.72;;
72275;SDS011;61204;49.980;8.358;2023-10-13T09:28:13;8.48;;;5.13;;
72275;SDS011;61204;49.980;8.358;2023-10-13T09:30:43;8.52;;;4.65;;
72275;SDS011;61204;49.980;8.358;2023-10-13T09:33:21;8.43;;;5.15;;
72275;SDS011;61204;49.980;8.358;2023-10-13T09:36:05;8.63;;;5.32;;
72275;SDS011;61204;49.980;8.358;2023-10-13T09:38:38;8.38;;;4.57;;
72275;SDS011;61204;49.980;8.358;2023-10-13T09:43:44;9.95;;;4.45;;
72275;SDS011;61204;49.980;8.358;2023-10-13T09:46:11;9.88;;;4.65;;
72275;SDS011;61204;49.980;8.358;2023-10-13T09:48:48;9.60;;;3.97;;
72275;SDS011;61204;49.980;8.358;2023-10-13T09:51:29;7.68;;;4.65;;
72275;SDS011;61204;49.980;8.358;2023-10-13T09:56:37;10.32;;;4.40;;
72275;SDS011;61204;49.980;8.358;2023-10-13T09:59:19;8.07;;;4.50;;
72275;SDS011;61204;49.980;8.358;2023-10-13T10:02:00;12.70;;;4.30;;
72275;SDS011;61204;49.980;8.358;2023-10-13T10:04:50;7.30;;;3.83;;
72275;SDS011;61204;49.980;8.358;2023-10-13T10:07:53;7.60;;;4.35;;
72275;SDS011;61204;49.980;8.358;2023-10-13T10:10:23;7.55;;;4.72;;
72275;SDS011;61204;49.980;8.358;2023-10-13T10:17:21;12.48;;;5.28;;
72275;SDS011;61204;49.980;8.358;2023-10-13T10:19:49;10.07;;;4.38;;
72275;SDS011;61204;49.980;8.358;2023-10-13T10:22:31;7.53;;;3.97;;
72275;SDS011;61204;49.980;8.358;2023-10-13T10:25:02;8.13;;;3.83;;
72275;SDS011;61204;49.980;8.358;2023-10-13T10:27:32;7.22;;;4.05;;
72275;SDS011;61204;49.980;8.358;2023-10-13T10:29:59;6.90;;;3.83;;
72275;SDS011;61204;49.980;8.358;2023-10-13T10:32:37;8.05;;;4.10;;
72275;SDS011;61204;49.980;8.358;2023-10-13T10:35:10;9.75;;;4.40;;
72275;SDS011;61204;49.980;8.358;2023-10-13T10:37:45;9.15;;;4.63;;
72275;SDS011;61204;49.980;8.358;2023-10-13T10:40:21;11.82;;;4.68;;
72275;SDS011;61204;49.980;8.358;2023-10-13T10:43:05;11.60;;;4.50;;
72275;SDS011;61204;49.980;8.358;2023-10-13T10:45:36;13.20;;;4.57;;
72275;SDS011;61204;49.980;8.358;2023-10-13T10:48:11;7.95;;;3.72;;
72275;SDS011;61204;49.980;8.358;2023-10-13T10:50:50;5.93;;;3.80;;
72275;SDS011;61204;49.980;8.358;2023-10-13T10:53:23;8.52;;;4.35;;
72275;SDS011;61204;49.980;8.358;2023-10-13T10:56:07;8.50;;;4.65;;
72275;SDS011;61204;49.980;8.358;2023-10-13T10:58:57;7.88;;;3.83;;
72275;SDS011;61204;49.980;8.358;2023-10-13T11:01:29;6.13;;;3.85;;
72275;SDS011;61204;49.980;8.358;2023-10-13T11:04:12;8.45;;;4.13;;
72275;SDS011;61204;49.980;8.358;2023-10-13T11:06:49;6.32;;;4.22;;
72275;SDS011;61204;49.980;8.358;2023-10-13T11:12:10;6.43;;;4.03;;
72275;SDS011;61204;49.980;8.358;2023-10-13T11:14:40;9.77;;;3.85;;
72275;SDS011;61204;49.980;8.358;2023-10-13T11:17:22;6.28;;;4.07;;
72275;SDS011;61204;49.980;8.358;2023-10-13T11:20:12;7.82;;;4.43;;
72275;SDS011;61204;49.980;8.358;2023-10-13T11:22:46;5.53;;;3.95;;
72275;SDS011;61204;49.980;8.358;2023-10-13T11:25:23;5.68;;;3.97;;
72275;SDS011;61204;49.980;8.358;2023-10-13T11:28:12;7.75;;;4.72;;
72275;SDS011;61204;49.980;8.358;2023-10-13T11:30:54;5.70;;;3.72;;
72275;SDS011;61204;49.980;8.358;2023-10-13T11:33:23;6.50;;;4.10;;
72275;SDS011;61204;49.980;8.358;2023-10-13T11:35:54;6.25;;;3.72;;
72275;SDS011;61204;49.980;8.358;2023-10-13T11:38:30;5.47;;;3.65;;
72275;SDS011;61204;49.980;8.358;2023-10-13T11:41:03;5.05;;;3.92;;
72275;SDS011;61204;49.980;8.358;2023-10-13T11:46:16;5.70;;;3.70;;
72275;SDS011;61204;49.980;8.358;2023-10-13T11:49:04;6.20;;;4.00;;
72275;SDS011;61204;49.980;8.358;2023-10-13T11:51:52;7.00;;;3.90;;
72275;SDS011;61204;49.980;8.358;2023-10-13T11:54:27;8.25;;;4.40;;
72275;SDS011;61204;49.980;8.358;2023-10-13T11:56:52;7.40;;;3.60;;
72275;SDS011;61204;49.980;8.358;2023-10-13T11:59:23;7.13;;;3.67;;
72275;SDS011;61204;49.980;8.358;2023-10-13T12:01:53;6.63;;;3.97;;
72275;SDS011;61204;49.980;8.358;2023-10-13T12:04:38;5.03;;;3.50;;
72275;SDS011;61204;49.980;8.358;2023-10-13T12:07:07;7.60;;;3.70;;
72275;SDS011;61204;49.980;8.358;2023-10-13T12:09:40;5.75;;;3.30;;
72275;SDS011;61204;49.980;8.358;2023-10-13T12:12:17;6.13;;;3.92;;
72275;SDS011;61204;49.980;8.358;2023-10-13T12:14:43;6.25;;;4.25;;
72275;SDS011;61204;49.980;8.358;2023-10-13T12:17:35;6.53;;;3.90;;
72275;SDS011;61204;49.980;8.358;2023-10-13T12:20:05;7.85;;;3.78;;
72275;SDS011;61204;49.980;8.358;2023-10-13T12:22:36;8.07;;;4.03;;
72275;SDS011;61204;49.980;8.358;2023-10-13T12:25:16;6.20;;;3.60;;
72275;SDS011;61204;49.980;8.358;2023-10-13T12:28:09;9.15;;;3.60;;
72275;SDS011;61204;49.980;8.358;2023-10-13T12:30:44;5.80;;;3.97;;
72275;SDS011;61204;49.980;8.358;2023-10-13T12:33:14;5.97;;;3.92;;
72275;SDS011;61204;49.980;8.358;2023-10-13T12:35:55;6.18;;;3.50;;
72275;SDS011;61204;49.980;8.358;2023-10-13T12:38:34;5.82;;;3.10;;
72275;SDS011;61204;49.980;8.358;2023-10-13T12:41:16;3.97;;;3.00;;
72275;SDS011;61204;49.980;8.358;2023-10-13T12:44:02;4.72;;;3.50;;
72275;SDS011;61204;49.980;8.358;2023-10-13T12:46:50;6.95;;;3.40;;
72275;SDS011;61204;49.980;8.358;2023-10-13T12:49:36;6.38;;;3.70;;
72275;SDS011;61204;49.980;8.358;2023-10-13T12:52:17;7.65;;;3.42;;
72275;SDS011;61204;49.980;8.358;2023-10-13T12:54:50;7.45;;;3.80;;
72275;SDS011;61204;49.980;8.358;2023-10-13T12:57:23;6.03;;;3.35;;
72275;SDS011;61204;49.980;8.358;2023-10-13T12:59:53;4.70;;;3.25;;
72275;SDS011;61204;49.980;8.358;2023-10-13T13:02:23;6.45;;;4.05;;
72275;SDS011;61204;49.980;8.358;2023-10-13T13:04:54;6.57;;;3.50;;
72275;SDS011;61204;49.980;8.358;2023-10-13T13:07:36;5.57;;;3.45;;
72275;SDS011;61204;49.980;8.358;2023-10-13T13:10:12;5.97;;;2.92;;
72275;SDS011;61204;49.980;8.358;2023-10-13T13:12:39;5.88;;;3.40;;
72275;SDS011;61204;49.980;8.358;2023-10-13T13:15:08;7.07;;;3.42;;
72275;SDS011;61204;49.980;8.358;2023-10-13T13:17:36;7.15;;;3.63;;
72275;SDS011;61204;49.980;8.358;2023-10-13T13:20:06;5.63;;;4.25;;
72275;SDS011;61204;49.980;8.358;2023-10-13T13:22:51;9.10;;;3.50;;
72275;SDS011;61204;49.980;8.358;2023-10-13T13:25:19;4.28;;;3.05;;
72275;SDS011;61204;49.980;8.358;2023-10-13T13:27:51;7.47;;;3.65;;
72275;SDS011;61204;49.980;8.358;2023-10-13T13:30:19;9.65;;;3.20;;
72275;SDS011;61204;49.980;8.358;2023-10-13T13:32:46;6.03;;;3.78;;
72275;SDS011;61204;49.980;8.358;2023-10-13T13:35:13;4.07;;;3.03;;
72275;SDS011;61204;49.980;8.358;2023-10-13T13:37:40;7.05;;;3.35;;
72275;SDS011;61204;49.980;8.358;2023-10-13T13:40:09;5.97;;;3.63;;
72275;SDS011;61204;49.980;8.358;2023-10-13T13:42:42;6.00;;;3.20;;
72275;SDS011;61204;49.980;8.358;2023-10-13T13:47:50;4.80;;;3.42;;
72275;SDS011;61204;49.980;8.358;2023-10-13T13:50:23;6.10;;;3.30;;
72275;SDS011;61204;49.980;8.358;2023-10-13T13:52:54;6.07;;;3.05;;
72275;SDS011;61204;49.980;8.358;2023-10-13T13:55:24;5.15;;;3.42;;
72275;SDS011;61204;49.980;8.358;2023-10-13T14:00:22;5.90;;;3.08;;
72275;SDS011;61204;49.980;8.358;2023-10-13T14:03:07;5.75;;;3.80;;
72275;SDS011;61204;49.980;8.358;2023-10-13T14:05:43;6.13;;;3.25;;
72275;SDS011;61204;49.980;8.358;2023-10-13T14:08:10;6.25;;;2.95;;
72275;SDS011;61204;49.980;8.358;2023-10-13T14:10:40;6.10;;;3.10;;
72275;SDS011;61204;49.980;8.358;2023-10-13T14:13:29;6.93;;;3.53;;
72275;SDS011;61204;49.980;8.358;2023-10-13T14:16:14;7.03;;;3.55;;
72275;SDS011;61204;49.980;8.358;2023-10-13T14:18:45;6.70;;;2.92;;
72275;SDS011;61204;49.980;8.358;2023-10-13T14:21:13;4.90;;;3.80;;
72275;SDS011;61204;49.980;8.358;2023-10-13T14:23:45;8.82;;;2.88;;
72275;SDS011;61204;49.980;8.358;2023-10-13T14:26:13;9.05;;;3.28;;
72275;SDS011;61204;49.980;8.358;2023-10-13T14:28:49;6.25;;;3.13;;
72275;SDS011;61204;49.980;8.358;2023-10-13T14:31:30;11.32;;;3.45;;
72275;SDS011;61204;49.980;8.358;2023-10-13T14:33:57;5.35;;;2.85;;
72275;SDS011;61204;49.980;8.358;2023-10-13T14:36:25;4.72;;;2.90;;
72275;SDS011;61204;49.980;8.358;2023-10-13T14:38:54;7.65;;;3.15;;
72275;SDS011;61204;49.980;8.358;2023-10-13T14:41:23;5.15;;;3.05;;
72275;SDS011;61204;49.980;8.358;2023-10-13T14:43:49;8.40;;;3.92;;
72275;SDS011;61204;49.980;8.358;2023-10-13T14:46:15;6.60;;;3.08;;
72275;SDS011;61204;49.980;8.358;2023-10-13T14:48:45;6.18;;;3.35;;
72275;SDS011;61204;49.980;8.358;2023-10-13T14:51:13;7.85;;;3.08;;
72275;SDS011;61204;49.980;8.358;2023-10-13T14:53:41;5.72;;;3.03;;
72275;SDS011;61204;49.980;8.358;2023-10-13T14:56:14;8.07;;;2.80;;
72275;SDS011;61204;49.980;8.358;2023-10-13T14:58:42;5.05;;;3.10;;
72275;SDS011;61204;49.980;8.358;2023-10-13T15:01:19;5.60;;;2.78;;
72275;SDS011;61204;49.980;8.358;2023-10-13T15:03:53;7.05;;;3.03;;
72275;SDS011;61204;49.980;8.358;2023-10-13T15:06:23;6.60;;;3.10;;
72275;SDS011;61204;49.980;8.358;2023-10-13T15:08:56;4.85;;;2.70;;
72275;SDS011;61204;49.980;8.358;2023-10-13T15:11:26;5.22;;;2.97;;
72275;SDS011;61204;49.980;8.358;2023-10-13T15:14:01;4.75;;;2.75;;
72275;SDS011;61204;49.980;8.358;2023-10-13T15:16:31;7.30;;;2.80;;
72275;SDS011;61204;49.980;8.358;2023-10-13T15:19:00;5.20;;;3.08;;
72275;SDS011;61204;49.980;8.358;2023-10-13T15:21:29;4.57;;;2.45;;
72275;SDS011;61204;49.980;8.358;2023-10-13T15:24:05;5.45;;;2.75;;
72275;SDS011;61204;49.980;8.358;2023-10-13T15:26:39;3.85;;;2.38;;
72275;SDS011;61204;49.980;8.358;2023-10-13T15:29:10;3.47;;;2.40;;
72275;SDS011;61204;49.980;8.358;2023-10-13T15:31:51;6.30;;;2.85;;
72275;SDS011;61204;49.980;8.358;2023-10-13T15:34:23;9.25;;;3.60;;
72275;SDS011;61204;49.980;8.358;2023-10-13T15:36:51;5.60;;;2.47;;
72275;SDS011;61204;49.980;8.358;2023-10-13T15:39:17;7.32;;;2.45;;
72275;SDS011;61204;49.980;8.358;2023-10-13T15:41:49;2.97;;;2.33;;
72275;SDS011;61204;49.980;8.358;2023-10-13T15:44:19;4.35;;;2.47;;
72275;SDS011;61204;49.980;8.358;2023-10-13T15:46:49;6.55;;;3.25;;
72275;SDS011;61204;49.980;8.358;2023-10-13T15:49:19;3.95;;;2.33;;
72275;SDS011;61204;49.980;8.358;2023-10-13T15:51:45;6.95;;;2.78;;
72275;SDS011;61204;49.980;8.358;2023-10-13T15:54:11;8.23;;;3.10;;
72275;SDS011;61204;49.980;8.358;2023-10-13T15:56:44;6.25;;;3.22;;
72275;SDS011;61204;49.980;8.358;2023-10-13T15:59:13;7.13;;;2.95;;
72275;SDS011;61204;49.980;8.358;2023-10-13T16:01:40;5.82;;;2.85;;
72275;SDS011;61204;49.980;8.358;2023-10-13T16:04:07;5.05;;;2.85;;
72275;SDS011;61204;49.980;8.358;2023-10-13T16:06:40;7.65;;;2.70;;
72275;SDS011;61204;49.980;8.358;2023-10-13T16:09:11;7.80;;;2.20;;
72275;SDS011;61204;49.980;8.358;2023-10-13T16:11:43;7.28;;;2.85;;